Time;durP1;ratioP1;P1;durP2;ratioP2;P2;SDS_P1;SDS_P2;PMS_P1;PMS_P2;Temp;Humidity;BMP_temperature;BMP_pressure;BME280_temperature;BME280_humidity;BME280_pressure;Samples;Min_cycle;Max_cycle;Signal;HPM_P1;HPM_P2
2022/05/22 06:12:12;;;;;;;3.30;2.33;;;23.70;72.50;;;;;;6267523;27;87949;-63
2022/05/22 06:15:15;;;;;;;3.00;2.10;;;23.70;72.70;;;;;;6269554;27;88953;-63
2022/05/22 06:18:17;;;;;;;3.13;2.20;;;23.70;72.80;;;;;;6274693;27;89075;-64
2022/05/22 06:21:22;;;;;;;2.55;2.20;;;23.70;73.00;;;;;;6278631;27;89149;-63
2022/05/22 06:24:24;;;;;;;4.28;2.50;;;23.70;73.00;;;;;;6276624;27;89055;-62
2022/05/22 06:27:27;;;;;;;3.63;2.15;;;23.60;72.80;;;;;;6283361;27;90827;-63
2022/05/22 06:30:30;;;;;;;2.95;2.08;;;23.70;72.70;;;;;;6281698;27;87255;-63
2022/05/22 06:33:33;;;;;;;3.30;2.13;;;23.70;72.40;;;;;;6283215;27;89099;-63
2022/05/22 06:36:35;;;;;;;3.15;2.33;;;23.60;72.40;;;;;;6281668;27;89078;-63
2022/05/22 06:39:53;;;;;;;2.15;1.90;;;23.70;72.50;;;;;;6279024;27;89954;-63
2022/05/22 06:42:59;;;;;;;3.55;2.13;;;23.70;72.50;;;;;;6278408;27;89263;-62
2022/05/22 06:46:01;;;;;;;2.78;2.08;;;23.70;72.50;;;;;;6282083;27;89068;-63
2022/05/22 06:49:03;;;;;;;3.65;2.20;;;23.70;72.50;;;;;;6280292;27;89210;-63
2022/05/22 06:52:06;;;;;;;3.40;2.10;;;23.70;72.50;;;;;;6278979;27;89252;-63
2022/05/22 06:55:10;;;;;;;3.15;1.83;;;23.60;72.70;;;;;;6279149;27;89083;-64
2022/05/22 06:58:13;;;;;;;2.80;1.92;;;23.70;72.80;;;;;;6279185;27;89381;-64
2022/05/22 07:01:16;;;;;;;2.38;1.98;;;23.70;72.80;;;;;;6278640;27;88366;-63
2022/05/22 07:04:21;;;;;;;2.40;1.80;;;23.70;72.80;;;;;;6280428;27;89158;-63
2022/05/22 07:07:23;;;;;;;2.85;1.80;;;23.70;72.70;;;;;;6281192;27;89113;-64
2022/05/22 07:13:42;;;;;;;2.75;1.95;;;23.70;72.70;;;;;;6278810;27;87584;-63
2022/05/22 07:16:44;;;;;;;1.90;1.70;;;23.70;72.70;;;;;;6280406;27;88940;-63
2022/05/22 07:19:46;;;;;;;4.07;2.00;;;23.70;72.70;;;;;;6279227;27;89451;-63
2022/05/22 07:22:48;;;;;;;2.72;1.90;;;23.70;72.50;;;;;;6278874;27;87995;-63
2022/05/22 07:25:51;;;;;;;2.45;2.00;;;23.60;72.50;;;;;;6280309;27;89117;-63
2022/05/22 07:28:54;;;;;;;3.03;2.17;;;23.70;72.70;;;;;;6278729;27;88001;-63
2022/05/22 07:31:57;;;;;;;2.72;2.17;;;23.70;72.70;;;;;;6276702;27;88359;-63
2022/05/22 07:34:59;;;;;;;3.47;2.17;;;23.60;72.90;;;;;;6274391;27;87954;-63
2022/05/22 07:38:01;;;;;;;3.75;1.95;;;23.70;72.70;;;;;;6280472;27;88051;-64
2022/05/22 07:41:03;;;;;;;3.28;2.00;;;23.60;72.60;;;;;;6278581;27;92408;-62
2022/05/22 07:44:07;;;;;;;1.77;1.60;;;23.60;72.40;;;;;;6280075;27;89089;-63
2022/05/22 07:47:09;;;;;;;2.85;1.70;;;23.60;72.50;;;;;;6281183;27;89046;-63
2022/05/22 07:50:18;;;;;;;2.92;1.80;;;23.60;72.70;;;;;;6281044;27;89073;-64
2022/05/22 07:53:20;;;;;;;2.63;1.70;;;23.60;72.70;;;;;;6280823;27;89798;-63
2022/05/22 07:56:22;;;;;;;2.75;1.70;;;23.60;72.70;;;;;;6284800;27;89108;-63
2022/05/22 07:59:26;;;;;;;2.25;1.88;;;23.60;72.50;;;;;;6283666;27;89070;-63
2022/05/22 08:02:28;;;;;;;3.38;1.75;;;23.60;72.70;;;;;;6282113;27;88320;-63
2022/05/22 08:05:30;;;;;;;2.97;1.85;;;23.60;72.70;;;;;;6282605;27;89540;-64
2022/05/22 08:08:32;;;;;;;3.15;1.70;;;23.60;72.80;;;;;;6285412;27;89114;-63
2022/05/22 08:11:34;;;;;;;2.60;1.80;;;23.60;72.80;;;;;;6284247;27;90027;-64
2022/05/22 08:14:38;;;;;;;2.20;1.80;;;23.60;73.00;;;;;;6284913;27;89153;-63
2022/05/22 08:17:40;;;;;;;2.47;1.80;;;23.60;72.90;;;;;;6282587;27;89289;-62
2022/05/22 08:20:44;;;;;;;3.10;1.70;;;23.60;72.60;;;;;;6285805;27;89075;-63
2022/05/22 08:23:46;;;;;;;3.97;1.70;;;23.60;72.50;;;;;;6285137;27;89091;-63
2022/05/22 08:26:48;;;;;;;2.58;1.60;;;23.60;72.70;;;;;;6286457;27;89047;-66
2022/05/22 08:29:52;;;;;;;3.83;2.10;;;23.60;72.70;;;;;;6286000;27;89068;-66
2022/05/22 08:32:54;;;;;;;3.60;2.50;;;23.60;74.70;;;;;;6285605;27;87240;-65
2022/05/22 08:35:56;;;;;;;4.70;2.20;;;23.60;76.00;;;;;;6285409;27;89155;-66
2022/05/22 08:38:58;;;;;;;4.05;2.17;;;23.60;75.80;;;;;;6285560;27;89077;-66
2022/05/22 08:42:06;;;;;;;4.05;2.00;;;23.60;79.30;;;;;;6283954;27;90027;-65
2022/05/22 08:45:17;;;;;;;536.22;329.13;;;23.60;78.40;;;;;;6285112;27;89011;-66
2022/05/22 08:48:30;;;;;;;818.03;548.08;;;23.60;79.40;;;;;;6282825;27;89046;-65
2022/05/22 08:51:35;;;;;;;411.20;260.35;;;23.70;82.80;;;;;;6283762;27;89096;-65
2022/05/22 08:54:41;;;;;;;116.88;70.68;;;23.70;79.60;;;;;;6283363;27;89050;-66
2022/05/22 09:01:12;;;;;;;50.90;30.50;;;23.70;76.70;;;;;;6284189;27;87965;-66
2022/05/22 09:04:30;;;;;;;40.75;26.73;;;23.80;75.50;;;;;;6284059;27;88547;-65
2022/05/22 09:07:45;;;;;;;29.33;16.13;;;23.80;74.60;;;;;;6282694;27;89409;-64
2022/05/22 09:10:59;;;;;;;28.83;16.48;;;23.80;76.70;;;;;;6280066;27;88016;-64
2022/05/22 09:14:08;;;;;;;23.05;14.00;;;23.80;78.00;;;;;;6268887;27;88906;-64
2022/05/22 09:17:16;;;;;;;22.67;12.60;;;23.80;76.40;;;;;;6277335;27;87970;-64
2022/05/22 09:20:21;;;;;;;21.38;11.60;;;23.80;75.90;;;;;;6272953;27;89129;-65
2022/05/22 09:23:39;;;;;;;14.25;8.90;;;23.80;75.90;;;;;;6278277;27;89050;-64
2022/05/22 09:26:47;;;;;;;24.15;10.82;;;23.80;74.00;;;;;;6268308;27;89011;-64
2022/05/22 09:30:02;;;;;;;17.90;9.18;;;23.80;75.70;;;;;;6270391;27;87976;-64
2022/05/22 09:33:15;;;;;;;18.27;9.45;;;23.80;76.20;;;;;;6273364;27;89116;-65
2022/05/22 09:36:27;;;;;;;16.17;8.25;;;23.80;76.20;;;;;;6275231;27;88529;-65
2022/05/22 09:39:43;;;;;;;13.35;7.40;;;23.70;75.60;;;;;;6275565;27;89114;-65
2022/05/22 09:43:16;;;;;;;11.10;6.30;;;23.70;75.00;;;;;;6275007;27;89085;-64
2022/05/22 09:46:37;;;;;;;10.25;4.90;;;23.70;74.20;;;;;;6273100;27;89937;-65
2022/05/22 09:50:00;;;;;;;11.38;4.50;;;23.70;74.00;;;;;;6270875;27;89069;-66
2022/05/22 09:53:07;;;;;;;15.07;4.90;;;23.70;73.30;;;;;;6276995;27;89049;-65
2022/05/22 09:56:19;;;;;;;19.60;6.30;;;23.70;72.20;;;;;;6271560;27;89054;-65
2022/05/22 09:59:36;;;;;;;16.35;6.18;;;23.70;73.70;;;;;;6274007;27;89057;-65
2022/05/22 10:02:44;;;;;;;20.25;7.32;;;23.70;73.50;;;;;;6279894;27;88806;-64
2022/05/22 10:06:01;;;;;;;19.17;7.28;;;23.60;74.00;;;;;;6276898;27;89149;-65
2022/05/22 10:09:14;;;;;;;13.57;5.40;;;23.70;74.50;;;;;;6275594;27;88322;-65
2022/05/22 10:12:30;;;;;;;10.30;4.30;;;23.60;74.30;;;;;;6279022;27;90319;-64
2022/05/22 10:15:47;;;;;;;9.70;4.20;;;23.60;73.30;;;;;;6276672;27;88172;-64
2022/05/22 10:19:07;;;;;;;9.10;3.60;;;23.70;73.80;;;;;;6278711;27;90125;-64
2022/05/22 10:22:19;;;;;;;6.68;2.83;;;23.70;74.00;;;;;;6279251;27;89291;-64
2022/05/22 10:25:32;;;;;;;5.97;3.00;;;23.70;73.00;;;;;;6277225;27;89072;-64
2022/05/22 10:28:37;;;;;;;5.72;2.95;;;23.70;73.70;;;;;;6272869;27;89044;-64
2022/05/22 10:31:47;;;;;;;5.28;2.65;;;23.60;73.30;;;;;;6274504;27;89123;-64
2022/05/22 10:34:57;;;;;;;4.20;2.50;;;23.70;72.70;;;;;;6280732;27;89397;-64
2022/05/22 10:38:09;;;;;;;5.63;2.80;;;23.60;71.90;;;;;;6278319;27;89040;-64
2022/05/22 10:44:39;;;;;;;7.97;2.67;;;23.70;73.00;;;;;;6279068;27;87380;-64
2022/05/22 10:47:41;;;;;;;7.35;2.97;;;23.70;72.20;;;;;;6280012;27;89144;-64
2022/05/22 10:50:53;;;;;;;9.43;3.28;;;23.70;72.20;;;;;;6277469;27;90548;-64
2022/05/22 10:53:58;;;;;;;3.97;2.60;;;23.70;72.40;;;;;;6277669;27;89634;-63
2022/05/22 10:57:12;;;;;;;4.05;2.45;;;23.70;71.50;;;;;;6279013;27;89134;-64
2022/05/22 11:00:17;;;;;;;5.65;2.60;;;23.70;70.80;;;;;;6270381;27;89127;-64
2022/05/22 11:03:24;;;;;;;3.42;2.30;;;23.70;71.30;;;;;;6279703;27;89165;-64
2022/05/22 11:06:26;;;;;;;3.95;2.30;;;23.70;70.30;;;;;;6279246;27;89270;-64
2022/05/22 11:09:32;;;;;;;5.25;2.30;;;23.70;70.20;;;;;;6279509;27;89085;-64
2022/05/22 11:12:35;;;;;;;2.97;1.90;;;23.70;70.30;;;;;;6279017;27;88285;-65
2022/05/22 11:15:39;;;;;;;3.13;2.10;;;23.60;68.90;;;;;;6279389;27;89109;-64
2022/05/22 11:18:41;;;;;;;3.72;2.08;;;23.60;69.10;;;;;;6279547;27;89110;-65
2022/05/22 11:22:08;;;;;;;3.47;1.95;;;23.60;70.30;;;;;;6277862;27;90325;-64
2022/05/22 11:25:28;;;;;;;3.08;1.98;;;23.60;70.00;;;;;;6279480;27;89351;-65
2022/05/22 11:29:03;;;;;;;6.32;4.22;;;23.60;70.00;;;;;;6279227;27;88962;-64
2022/05/22 11:32:19;;;;;;;5.20;2.40;;;23.60;73.20;;;;;;6268317;27;89071;-64
2022/05/22 11:35:38;;;;;;;3.33;1.90;;;23.60;72.20;;;;;;6275276;27;89368;-64
2022/05/22 11:38:59;;;;;;;3.45;1.60;;;23.60;71.20;;;;;;6272671;27;88737;-63
2022/05/22 11:42:15;;;;;;;22.17;9.30;;;23.60;71.30;;;;;;6270819;27;89003;-64
2022/05/22 11:45:32;;;;;;;6.57;3.30;;;23.60;73.00;;;;;;6280973;27;87194;-64
2022/05/22 11:48:47;;;;;;;3.72;2.13;;;23.60;73.60;;;;;;6282083;27;88068;-64
2022/05/22 11:52:01;;;;;;;3.25;1.80;;;23.60;75.20;;;;;;6267737;27;89964;-65
2022/05/22 11:55:12;;;;;;;2.53;1.92;;;23.60;73.80;;;;;;6280765;27;90106;-64
2022/05/22 11:58:27;;;;;;;2.67;1.70;;;23.60;73.40;;;;;;6281626;27;87748;-64
2022/05/22 12:01:33;;;;;;;3.75;1.92;;;23.60;74.20;;;;;;6281434;27;87805;-63
2022/05/22 12:04:55;;;;;;;3.58;1.90;;;23.60;74.40;;;;;;6280949;27;89115;-64
2022/05/22 12:08:24;;;;;;;2.55;1.65;;;23.60;74.40;;;;;;6281357;27;89085;-64
2022/05/22 12:11:33;;;;;;;2.80;1.58;;;23.60;73.20;;;;;;6280705;27;89027;-64
2022/05/22 12:14:47;;;;;;;3.65;1.90;;;23.60;73.60;;;;;;6281183;27;89068;-64
2022/05/22 12:17:57;;;;;;;3.20;1.70;;;23.60;73.30;;;;;;6282104;27;88229;-64
2022/05/22 12:21:06;;;;;;;1.70;1.50;;;23.60;72.70;;;;;;6281037;27;89206;-64
2022/05/22 12:24:14;;;;;;;2.05;1.50;;;23.60;72.60;;;;;;6281282;27;89167;-65
2022/05/22 12:27:23;;;;;;;2.08;1.77;;;23.60;72.80;;;;;;6280316;27;90339;-65
2022/05/22 12:30:29;;;;;;;3.13;1.80;;;23.60;71.90;;;;;;6280938;27;89380;-64
2022/05/22 12:33:34;;;;;;;2.95;1.73;;;23.60;71.80;;;;;;6276961;27;89430;-64
2022/05/22 12:36:36;;;;;;;2.80;1.50;;;23.60;71.90;;;;;;6281238;27;89065;-64
2022/05/22 12:39:46;;;;;;;3.35;1.60;;;23.60;71.80;;;;;;6281426;27;89131;-65
2022/05/22 12:42:52;;;;;;;3.35;1.70;;;23.60;72.10;;;;;;6285421;27;88787;-64
2022/05/22 12:45:58;;;;;;;2.00;1.60;;;23.60;72.30;;;;;;6284866;27;89015;-65
2022/05/22 12:49:09;;;;;;;2.72;1.65;;;23.60;71.70;;;;;;6285077;27;88323;-65
2022/05/22 12:52:29;;;;;;;3.10;1.90;;;23.60;72.10;;;;;;6284758;27;87932;-65
2022/05/22 12:55:34;;;;;;;2.03;1.58;;;23.60;72.70;;;;;;6284786;27;89027;-65
2022/05/22 12:58:40;;;;;;;3.40;1.70;;;23.60;72.70;;;;;;6284956;27;90303;-65
2022/05/22 13:01:45;;;;;;;2.03;1.50;;;23.60;72.80;;;;;;6285076;27;88922;-65
2022/05/22 13:04:55;;;;;;;2.35;1.65;;;23.60;72.60;;;;;;6285222;27;87962;-65
2022/05/22 13:07:57;;;;;;;2.53;2.08;;;23.60;73.50;;;;;;6284542;27;89100;-65
2022/05/22 13:11:01;;;;;;;3.92;2.50;;;23.60;72.90;;;;;;6285386;27;89185;-65
2022/05/22 13:14:03;;;;;;;4.00;2.95;;;23.60;72.80;;;;;;6284199;27;89157;-65
2022/05/22 13:17:07;;;;;;;3.08;2.78;;;23.60;72.70;;;;;;6284794;27;89122;-65
2022/05/22 13:20:22;;;;;;;2.75;2.40;;;23.60;72.80;;;;;;6272387;27;88304;-64
2022/05/22 13:23:42;;;;;;;5.05;2.53;;;23.60;73.10;;;;;;6283948;27;89448;-65
2022/05/22 13:27:00;;;;;;;3.88;2.80;;;23.60;72.80;;;;;;6271696;27;87790;-65
2022/05/22 13:30:05;;;;;;;2.95;2.65;;;23.60;73.20;;;;;;6272259;27;90140;-65
2022/05/22 13:33:11;;;;;;;2.63;2.30;;;23.60;73.30;;;;;;6284582;27;88904;-65
2022/05/22 13:36:19;;;;;;;3.03;2.42;;;23.60;73.70;;;;;;6283953;27;88953;-65
2022/05/22 13:39:52;;;;;;;2.17;1.98;;;23.60;73.20;;;;;;6284267;27;89163;-65
2022/05/22 13:43:31;;;;;;;2.10;1.73;;;23.60;73.30;;;;;;6248257;27;89491;-65
2022/05/22 13:47:03;;;;;;;2.30;2.08;;;23.60;73.50;;;;;;6272199;27;89438;-65
2022/05/22 13:53:52;;;;;;;3.15;2.00;;;23.60;72.50;;;;;;6284525;27;87155;-65
2022/05/22 13:56:58;;;;;;;3.00;1.83;;;23.60;72.60;;;;;;6283996;27;89068;-65
2022/05/22 14:00:03;;;;;;;2.78;1.70;;;23.60;72.20;;;;;;6284404;27;89229;-65
2022/05/22 14:03:10;;;;;;;2.75;1.98;;;23.60;71.80;;;;;;6283746;27;89939;-65
2022/05/22 14:06:17;;;;;;;2.75;1.88;;;23.50;72.10;;;;;;6283793;27;89177;-65
2022/05/22 14:09:25;;;;;;;2.17;1.85;;;23.50;71.90;;;;;;6283656;27;89272;-65
2022/05/22 14:12:32;;;;;;;2.05;1.73;;;23.50;71.60;;;;;;6283749;27;89059;-65
2022/05/22 14:15:34;;;;;;;1.80;1.70;;;23.50;71.10;;;;;;6283337;27;89101;-64
2022/05/22 14:18:37;;;;;;;3.00;1.63;;;23.50;71.60;;;;;;6282788;27;88305;-65
2022/05/22 14:21:42;;;;;;;2.75;1.80;;;23.50;71.60;;;;;;6282460;27;89292;-65
2022/05/22 14:24:54;;;;;;;1.73;1.58;;;23.50;72.00;;;;;;6284287;27;88326;-65
2022/05/22 14:27:56;;;;;;;1.67;1.55;;;23.50;71.80;;;;;;6283056;27;89067;-66
2022/05/22 14:30:58;;;;;;;1.85;1.60;;;23.50;72.00;;;;;;6283317;27;89014;-66
2022/05/22 14:34:01;;;;;;;2.22;1.55;;;23.60;72.00;;;;;;6281347;27;90083;-66
2022/05/22 14:37:05;;;;;;;3.38;1.80;;;23.50;71.80;;;;;;6271552;27;89202;-65
2022/05/22 14:40:17;;;;;;;2.00;1.60;;;23.50;71.70;;;;;;6271166;27;89244;-65
2022/05/22 14:43:22;;;;;;;2.47;1.60;;;23.50;71.20;;;;;;6283209;27;87951;-65
2022/05/22 14:46:28;;;;;;;2.63;1.90;;;23.50;71.10;;;;;;6283333;27;89043;-66
2022/05/22 14:49:35;;;;;;;2.60;2.08;;;23.50;71.30;;;;;;6281209;27;87934;-65
2022/05/22 14:52:43;;;;;;;3.78;2.10;;;23.50;70.50;;;;;;6282171;27;89117;-65
2022/05/22 14:55:51;;;;;;;2.22;2.00;;;23.50;71.00;;;;;;6281095;27;88543;-65
2022/05/22 14:58:58;;;;;;;3.58;2.33;;;23.50;71.60;;;;;;6279932;27;89102;-66
2022/05/22 15:02:03;;;;;;;3.50;1.80;;;23.50;71.10;;;;;;6281966;27;87982;-66
2022/05/22 15:05:09;;;;;;;2.40;1.90;;;23.60;71.50;;;;;;6272020;27;89892;-67
2022/05/22 15:08:25;;;;;;;2.88;1.77;;;23.50;71.70;;;;;;6281113;27;89017;-69
2022/05/22 15:11:31;;;;;;;2.72;1.77;;;23.50;72.50;;;;;;6281347;27;89297;-69
2022/05/22 15:14:43;;;;;;;3.05;1.70;;;23.50;72.90;;;;;;6278322;27;89304;-68
2022/05/22 15:18:03;;;;;;;3.90;1.60;;;23.50;72.20;;;;;;6270968;27;89009;-68
2022/05/22 15:21:05;;;;;;;5.53;1.60;;;23.60;71.50;;;;;;6281669;27;88946;-67
2022/05/22 15:27:34;;;;;;;3.13;2.20;;;23.60;72.00;;;;;;6274127;27;86638;-67
2022/05/22 15:30:38;;;;;;;2.65;1.90;;;23.60;72.60;;;;;;6277372;27;88036;-68
2022/05/22 15:33:51;;;;;;;3.20;2.08;;;23.50;72.00;;;;;;6277942;27;88938;-67
2022/05/22 15:36:54;;;;;;;6.07;2.47;;;23.60;71.20;;;;;;6278048;27;89806;-67
2022/05/22 15:40:07;;;;;;;6.05;2.70;;;23.60;71.10;;;;;;6280201;27;89220;-67
2022/05/22 15:43:13;;;;;;;8.70;3.50;;;23.60;71.90;;;;;;6281067;27;90052;-67
2022/05/22 15:46:22;;;;;;;5.53;2.42;;;23.50;72.00;;;;;;6281044;27;89192;-67
2022/05/22 15:52:48;;;;;;;5.18;2.45;;;23.50;72.10;;;;;;6282166;27;87065;-67
2022/05/22 15:55:51;;;;;;;6.25;3.40;;;23.50;71.90;;;;;;6276141;27;87957;-67
2022/05/22 15:58:53;;;;;;;5.63;2.38;;;23.60;72.00;;;;;;6278388;27;88578;-68
2022/05/22 16:01:56;;;;;;;7.65;2.70;;;23.60;71.50;;;;;;6276712;27;89062;-67
2022/05/22 16:04:59;;;;;;;4.88;2.33;;;23.50;71.60;;;;;;6277659;27;89009;-68
2022/05/22 16:08:01;;;;;;;5.32;2.70;;;23.50;71.70;;;;;;6279848;27;90136;-69
2022/05/22 16:11:04;;;;;;;6.80;2.80;;;23.60;71.60;;;;;;6279767;27;88962;-68
2022/05/22 16:14:09;;;;;;;5.45;2.47;;;23.60;71.70;;;;;;6280219;27;89040;-68
2022/05/22 16:17:14;;;;;;;9.98;4.30;;;23.60;71.90;;;;;;6283102;27;89138;-67
2022/05/22 16:20:17;;;;;;;9.57;3.97;;;23.60;72.50;;;;;;6285200;27;89545;-69
2022/05/22 16:23:23;;;;;;;14.60;5.30;;;23.60;72.10;;;;;;6283106;27;87979;-67
2022/05/22 16:26:27;;;;;;;11.10;4.75;;;23.60;73.20;;;;;;6283920;27;89462;-69
2022/05/22 16:29:30;;;;;;;9.30;3.90;;;23.70;73.00;;;;;;6277680;27;88718;-67
2022/05/22 16:32:32;;;;;;;8.25;3.83;;;23.70;72.90;;;;;;6281120;27;89308;-67
2022/05/22 16:35:34;;;;;;;8.05;3.40;;;23.80;72.80;;;;;;6283206;27;88966;-68
2022/05/22 16:38:36;;;;;;;5.13;2.78;;;23.80;72.50;;;;;;6281776;27;90144;-68
2022/05/22 16:41:40;;;;;;;4.82;2.72;;;23.80;71.20;;;;;;6283591;27;87768;-68
2022/05/22 16:44:42;;;;;;;3.70;2.30;;;23.90;71.10;;;;;;6283655;27;89124;-67
2022/05/22 16:54:23;;;;;;;543.15;260.23;;;23.90;71.30;;;;;;6283101;27;87341;-66
2022/05/22 16:57:28;;;;;;;193.60;88.97;;;23.90;77.50;;;;;;6278616;27;89011;-66
2022/05/22 17:00:30;;;;;;;111.00;50.05;;;24.00;78.00;;;;;;6279390;27;89245;-67
2022/05/22 17:03:34;;;;;;;75.63;33.58;;;24.10;75.90;;;;;;6276719;27;87845;-67
2022/05/22 17:06:41;;;;;;;54.70;27.45;;;24.20;74.60;;;;;;6275657;27;89302;-66
2022/05/22 17:09:46;;;;;;;44.90;21.52;;;24.20;73.00;;;;;;6273110;27;90001;-67
2022/05/22 17:12:50;;;;;;;39.05;19.02;;;24.30;72.70;;;;;;6280898;27;89190;-67
2022/05/22 17:15:52;;;;;;;35.28;17.20;;;24.30;72.20;;;;;;6270439;27;89095;-67
2022/05/22 17:18:54;;;;;;;31.65;15.50;;;24.30;71.80;;;;;;6281313;27;88997;-67
2022/05/22 17:21:59;;;;;;;23.95;12.10;;;24.40;72.00;;;;;;6281138;27;89108;-68
2022/05/22 17:25:04;;;;;;;27.38;12.77;;;24.40;71.90;;;;;;6280731;27;89137;-66
2022/05/22 17:28:08;;;;;;;21.60;10.85;;;24.30;72.70;;;;;;6274268;27;88305;-67
2022/05/22 17:31:10;;;;;;;17.05;9.75;;;24.30;73.00;;;;;;6274253;27;88279;-68
2022/05/22 17:34:12;;;;;;;19.27;9.85;;;24.30;72.70;;;;;;6281748;27;89082;-67
2022/05/22 17:37:21;;;;;;;21.67;10.23;;;24.30;72.50;;;;;;6281354;27;89286;-67
2022/05/22 17:40:24;;;;;;;16.50;8.93;;;24.20;72.20;;;;;;6279236;27;89937;-68
2022/05/22 17:43:28;;;;;;;16.35;8.27;;;24.20;72.20;;;;;;6280085;27;89108;-67
2022/05/22 17:46:30;;;;;;;18.10;9.85;;;24.20;72.50;;;;;;6280790;27;89025;-67
2022/05/22 17:49:32;;;;;;;18.15;9.13;;;24.20;72.50;;;;;;6279244;27;89072;-68
2022/05/22 17:52:35;;;;;;;16.98;8.70;;;24.20;72.50;;;;;;6280107;27;89137;-68
2022/05/22 17:55:37;;;;;;;13.80;8.13;;;24.20;72.50;;;;;;6275598;27;89085;-69
2022/05/22 17:58:40;;;;;;;15.30;7.85;;;24.20;72.50;;;;;;6278373;27;89026;-68
2022/05/22 18:01:43;;;;;;;14.65;7.03;;;24.10;72.30;;;;;;6280751;27;88884;-69
2022/05/22 18:04:45;;;;;;;10.43;5.75;;;24.10;73.50;;;;;;6283431;27;89762;-69
2022/05/22 18:07:48;;;;;;;33.50;8.95;;;24.10;73.60;;;;;;6283882;27;89064;-67
2022/05/22 18:17:41;;;;;;;12.60;6.00;;;24.10;73.30;;;;;;6221587;27;88859;-67
2022/05/22 18:20:43;;;;;;;16.58;6.97;;;24.10;73.10;;;;;;6278791;27;89174;-68
2022/05/22 18:23:51;;;;;;;20.50;7.88;;;24.10;73.30;;;;;;6283440;27;89069;-67
2022/05/22 18:26:55;;;;;;;22.02;8.00;;;24.00;73.40;;;;;;6282694;27;87956;-68
2022/05/22 18:29:59;;;;;;;18.80;7.38;;;24.00;75.50;;;;;;6274487;27;89516;-68
2022/05/22 18:33:01;;;;;;;24.48;7.97;;;24.00;75.50;;;;;;6283611;27;88236;-68
2022/05/22 18:36:03;;;;;;;23.67;8.48;;;24.00;76.10;;;;;;6283319;27;89441;-68
2022/05/22 18:39:07;;;;;;;16.73;6.47;;;24.00;75.70;;;;;;6281513;27;88731;-68
2022/05/22 18:42:09;;;;;;;12.85;5.30;;;24.00;74.60;;;;;;6269703;27;90033;-67
2022/05/22 18:45:15;;;;;;;9.15;4.35;;;24.00;74.00;;;;;;6278274;27;89072;-68
2022/05/22 18:48:19;;;;;;;8.52;3.75;;;24.00;74.00;;;;;;6275497;27;88096;-67
2022/05/22 18:51:21;;;;;;;8.60;3.70;;;23.90;74.00;;;;;;6278598;27;88968;-68
2022/05/22 18:54:23;;;;;;;15.10;4.50;;;23.90;74.10;;;;;;6278877;27;89547;-68
2022/05/22 18:57:25;;;;;;;28.05;8.00;;;23.90;74.30;;;;;;6278442;27;88000;-66
2022/05/22 19:00:31;;;;;;;23.13;7.53;;;23.90;74.90;;;;;;6278919;27;87812;-68
2022/05/22 19:03:33;;;;;;;22.92;9.48;;;23.90;75.80;;;;;;6278351;27;88386;-67
2022/05/22 19:06:36;;;;;;;15.45;7.00;;;23.90;76.60;;;;;;6277374;27;89155;-69
2022/05/22 19:09:38;;;;;;;15.82;6.38;;;23.90;76.70;;;;;;6275997;27;89102;-68
2022/05/22 19:12:40;;;;;;;11.43;5.00;;;23.90;76.40;;;;;;6277699;27;88820;-68
2022/05/22 19:15:43;;;;;;;10.30;4.57;;;23.80;76.10;;;;;;6276167;27;89027;-66
2022/05/22 19:18:45;;;;;;;8.68;4.07;;;23.90;75.70;;;;;;6278482;27;89075;-68
2022/05/22 19:21:48;;;;;;;5.97;3.50;;;23.90;75.40;;;;;;6279362;27;89075;-67
2022/05/22 19:24:50;;;;;;;6.30;3.38;;;23.90;75.20;;;;;;6278211;27;89027;-68
2022/05/22 19:27:55;;;;;;;6.32;3.08;;;23.90;75.10;;;;;;6275218;27;89163;-68
2022/05/22 19:30:59;;;;;;;5.70;3.05;;;23.80;74.70;;;;;;6273732;27;89132;-68
2022/05/22 19:34:07;;;;;;;5.05;2.67;;;23.90;75.00;;;;;;6279380;27;88323;-67
2022/05/22 19:37:09;;;;;;;4.70;2.60;;;23.90;75.00;;;;;;6278344;27;89048;-68
2022/05/22 19:40:12;;;;;;;4.05;2.50;;;23.80;74.80;;;;;;6279164;27;89064;-68
2022/05/22 19:46:42;;;;;;;3.88;2.45;;;23.80;80.10;;;;;;6279799;27;87311;-68
2022/05/22 19:49:47;;;;;;;4.85;2.20;;;23.90;78.90;;;;;;6279409;27;89123;-68
2022/05/22 19:52:49;;;;;;;3.45;2.10;;;23.90;77.60;;;;;;6283243;27;89097;-68
2022/05/22 19:59:13;;;;;;;2.55;1.75;;;24.00;76.20;;;;;;6276598;27;87996;-68
2022/05/22 20:02:17;;;;;;;3.05;1.90;;;24.00;75.70;;;;;;6275235;27;89152;-68
2022/05/22 20:05:19;;;;;;;2.95;1.90;;;24.00;75.40;;;;;;6277777;27;88944;-67
2022/05/22 20:08:30;;;;;;;3.45;1.92;;;24.00;75.10;;;;;;6282833;27;87972;-67
2022/05/22 20:11:32;;;;;;;4.43;2.00;;;24.00;74.90;;;;;;6283228;27;88294;-68
2022/05/22 20:14:35;;;;;;;2.95;1.77;;;24.00;75.00;;;;;;6279460;27;88991;-68
2022/05/22 20:17:38;;;;;;;2.38;1.60;;;24.00;74.50;;;;;;6285721;27;89118;-68
2022/05/22 20:20:40;;;;;;;2.20;1.60;;;23.90;74.50;;;;;;6285299;27;89124;-68
2022/05/22 20:23:42;;;;;;;2.90;1.60;;;23.90;74.50;;;;;;6285789;27;89070;-68
2022/05/22 20:26:45;;;;;;;2.40;1.70;;;23.90;74.40;;;;;;6285596;27;89129;-68
2022/05/22 20:29:47;;;;;;;2.35;1.92;;;23.90;74.50;;;;;;6273357;27;89110;-68
2022/05/22 20:32:51;;;;;;;3.67;2.35;;;23.90;74.50;;;;;;6285098;27;91369;-68
2022/05/22 20:35:53;;;;;;;2.60;2.20;;;23.80;74.60;;;;;;6285348;27;88113;-68
2022/05/22 20:38:55;;;;;;;3.17;2.20;;;23.80;74.50;;;;;;6275458;27;89288;-68
2022/05/22 20:42:00;;;;;;;3.50;2.03;;;23.80;74.50;;;;;;6285398;27;89188;-66
2022/05/22 20:45:02;;;;;;;2.50;2.17;;;23.90;74.60;;;;;;6284560;27;90074;-68
2022/05/22 20:48:07;;;;;;;3.65;2.05;;;23.80;74.50;;;;;;6284857;27;89012;-68
2022/05/22 20:51:09;;;;;;;3.00;2.10;;;23.80;73.80;;;;;;6284667;27;87964;-68
2022/05/22 20:54:11;;;;;;;2.45;2.10;;;23.80;73.70;;;;;;6285412;27;89132;-67
2022/05/22 20:57:14;;;;;;;3.17;2.00;;;23.80;73.70;;;;;;6285081;27;87907;-68
2022/05/22 21:00:18;;;;;;;2.90;2.00;;;23.70;73.70;;;;;;6285290;27;89485;-67
2022/05/22 21:03:21;;;;;;;3.42;2.40;;;23.80;73.80;;;;;;6283829;27;89254;-68
2022/05/22 21:06:23;;;;;;;2.13;1.92;;;23.80;74.10;;;;;;6285056;27;87204;-68
2022/05/22 21:09:25;;;;;;;3.78;2.10;;;23.70;74.30;;;;;;6281253;27;89162;-67
2022/05/22 21:12:27;;;;;;;3.65;1.80;;;23.70;74.50;;;;;;6283088;27;89120;-68
2022/05/22 21:15:29;;;;;;;3.67;2.00;;;23.70;74.40;;;;;;6281464;27;90006;-67
2022/05/22 21:18:34;;;;;;;2.10;1.70;;;23.70;74.20;;;;;;6284510;27;89087;-67
2022/05/22 21:21:36;;;;;;;2.03;1.77;;;23.70;74.40;;;;;;6284674;27;89135;-67
2022/05/22 21:31:17;;;;;;;2.85;1.88;;;23.70;74.20;;;;;;6271541;27;87446;-67
2022/05/22 21:34:21;;;;;;;3.45;2.08;;;23.70;74.20;;;;;;6283716;27;89109;-68
2022/05/22 21:37:23;;;;;;;2.10;1.73;;;23.70;74.00;;;;;;6284298;27;88169;-66
2022/05/22 21:40:26;;;;;;;2.05;1.85;;;23.60;73.80;;;;;;6283780;27;89200;-67
2022/05/22 21:43:29;;;;;;;2.40;1.90;;;23.60;73.80;;;;;;6284230;27;88992;-67
2022/05/22 21:46:31;;;;;;;2.08;1.80;;;23.60;73.80;;;;;;6283092;27;91079;-68
2022/05/22 21:49:34;;;;;;;2.80;1.85;;;23.60;73.70;;;;;;6283576;27;89183;-68
2022/05/22 21:52:36;;;;;;;3.60;2.10;;;23.60;74.00;;;;;;6283314;27;88029;-67
2022/05/22 21:55:44;;;;;;;3.85;2.10;;;23.60;74.20;;;;;;6283416;27;89092;-67
2022/05/22 21:58:47;;;;;;;2.33;1.98;;;23.60;74.30;;;;;;6283995;27;87961;-67
2022/05/22 22:01:49;;;;;;;2.00;1.80;;;23.60;74.20;;;;;;6283081;27;89100;-67
2022/05/22 22:04:53;;;;;;;2.10;1.77;;;23.60;74.10;;;;;;6266867;27;89076;-67
2022/05/22 22:07:55;;;;;;;4.28;2.13;;;23.50;74.00;;;;;;6271925;27;88253;-67
2022/05/22 22:10:57;;;;;;;2.05;1.85;;;23.50;74.00;;;;;;6271649;27;89572;-67
2022/05/22 22:13:59;;;;;;;2.53;1.90;;;23.50;74.10;;;;;;6277117;27;89117;-67
2022/05/22 22:17:01;;;;;;;2.47;1.95;;;23.50;74.10;;;;;;6282217;27;90169;-67
2022/05/22 22:20:05;;;;;;;2.42;1.90;;;23.50;74.10;;;;;;6283412;27;89070;-68
2022/05/22 22:23:07;;;;;;;1.83;1.60;;;23.50;74.00;;;;;;6269726;27;89174;-67
2022/05/22 22:26:09;;;;;;;2.78;1.80;;;23.50;74.00;;;;;;6282747;27;89493;-67
2022/05/22 22:29:11;;;;;;;2.22;1.83;;;23.50;74.00;;;;;;6282996;27;89265;-67
2022/05/22 22:32:14;;;;;;;2.00;1.80;;;23.50;73.90;;;;;;6283183;27;89140;-67
2022/05/22 22:35:18;;;;;;;2.10;1.90;;;23.50;74.00;;;;;;6283161;27;89105;-67
2022/05/22 22:38:21;;;;;;;2.78;2.08;;;23.40;73.80;;;;;;6278425;27;89575;-67
2022/05/22 22:41:24;;;;;;;3.53;1.98;;;23.50;73.80;;;;;;6283061;27;89289;-67
2022/05/22 22:44:30;;;;;;;2.63;2.20;;;23.40;73.60;;;;;;6282573;27;88328;-66
2022/05/22 22:47:32;;;;;;;3.72;2.08;;;23.40;73.70;;;;;;6282106;27;89693;-67
2022/05/22 22:50:35;;;;;;;3.95;2.17;;;23.40;73.80;;;;;;6282247;27;89422;-67
2022/05/22 23:00:18;;;;;;;2.42;1.95;;;23.40;74.00;;;;;;6271275;27;87362;-66
2022/05/22 23:03:21;;;;;;;2.53;2.00;;;23.40;74.00;;;;;;6282077;27;89202;-67
2022/05/22 23:06:24;;;;;;;2.50;2.00;;;23.40;74.00;;;;;;6282119;27;89075;-67
2022/05/22 23:09:26;;;;;;;3.72;2.13;;;23.40;74.00;;;;;;6282678;27;88325;-67